createdAt,value
2023-05-21T00:01:54.794Z,8.17
2023-05-21T00:04:23.571Z,6.73
2023-05-21T00:06:52.466Z,12.00
2023-05-21T00:09:21.921Z,7.87
2023-05-21T00:11:50.815Z,9.47
2023-05-21T00:14:20.845Z,7.30
2023-05-21T00:16:49.870Z,5.30
2023-05-21T00:19:18.932Z,7.63
2023-05-21T00:21:47.744Z,6.20
2023-05-21T00:24:16.545Z,9.50
2023-05-21T00:26:45.646Z,7.13
2023-05-21T00:29:14.593Z,7.60
2023-05-21T00:31:44.728Z,8.00
2023-05-21T00:34:15.680Z,7.67
2023-05-21T00:36:46.311Z,11.53
2023-05-21T00:39:16.985Z,5.43
2023-05-21T00:41:49.304Z,6.60
2023-05-21T00:44:21.629Z,7.47
2023-05-21T00:46:56.354Z,8.83
2023-05-21T00:49:26.865Z,5.33
2023-05-21T00:51:57.110Z,6.17
2023-05-21T00:54:31.710Z,5.23
2023-05-21T00:57:02.160Z,5.70
2023-05-21T00:59:32.065Z,10.20
2023-05-21T01:02:05.391Z,6.90
2023-05-21T01:04:38.513Z,7.73
2023-05-21T01:07:10.157Z,6.43
2023-05-21T01:09:39.685Z,9.63
2023-05-21T01:12:10.668Z,6.07
2023-05-21T01:14:40.120Z,8.17
2023-05-21T01:17:10.613Z,11.17
2023-05-21T01:19:39.172Z,12.53
2023-05-21T01:22:08.448Z,7.17
2023-05-21T01:24:38.642Z,8.63
2023-05-21T01:27:07.850Z,9.03
2023-05-21T01:29:36.457Z,10.23
2023-05-21T01:32:06.868Z,9.73
2023-05-21T01:34:36.869Z,8.87
2023-05-21T01:37:09.169Z,7.00
2023-05-21T01:39:40.040Z,8.10
2023-05-21T01:42:10.401Z,8.90
2023-05-21T01:44:39.115Z,10.03
2023-05-21T01:47:07.788Z,8.20
2023-05-21T01:49:37.325Z,7.83
2023-05-21T01:52:06.129Z,7.43
2023-05-21T01:54:34.874Z,8.07
2023-05-21T01:57:04.699Z,8.77
2023-05-21T01:59:33.384Z,6.90
2023-05-21T02:02:02.371Z,8.33
2023-05-21T02:04:31.570Z,10.13
2023-05-21T02:07:00.255Z,9.37
2023-05-21T02:09:28.727Z,10.63
2023-05-21T02:11:58.255Z,8.73
2023-05-21T02:14:29.877Z,9.53
2023-05-21T02:16:58.453Z,7.70
2023-05-21T02:19:27.176Z,8.93
2023-05-21T02:21:56.363Z,8.70
2023-05-21T02:24:25.678Z,7.60
2023-05-21T02:26:54.406Z,8.43
2023-05-21T02:29:23.033Z,7.03
2023-05-21T02:31:53.058Z,7.33
2023-05-21T02:34:21.689Z,7.30
2023-05-21T02:36:52.421Z,8.37
2023-05-21T02:39:21.070Z,9.10
2023-05-21T02:41:50.469Z,9.17
2023-05-21T02:44:20.959Z,9.17
2023-05-21T02:46:49.436Z,11.43
2023-05-21T02:49:19.406Z,7.57
2023-05-21T02:51:48.255Z,6.67
2023-05-21T02:54:16.826Z,9.03
2023-05-21T02:56:45.496Z,8.13
2023-05-21T02:59:14.095Z,7.77
2023-05-21T03:01:45.104Z,7.00
2023-05-21T03:04:13.720Z,8.30
2023-05-21T03:06:44.635Z,9.17
2023-05-21T03:09:13.324Z,7.53
2023-05-21T03:11:41.941Z,9.03
2023-05-21T03:14:11.015Z,6.67
2023-05-21T03:16:41.900Z,9.23
2023-05-21T03:19:17.204Z,9.50
2023-05-21T03:21:49.095Z,10.80
2023-05-21T03:24:17.579Z,11.37
2023-05-21T03:26:48.147Z,12.90
2023-05-21T03:29:16.625Z,10.70
2023-05-21T03:31:45.142Z,9.23
2023-05-21T03:34:13.625Z,7.57
2023-05-21T03:36:42.332Z,8.57
2023-05-21T03:39:12.341Z,7.97
2023-05-21T03:41:40.819Z,8.87
2023-05-21T03:44:09.388Z,8.13
2023-05-21T03:46:38.035Z,8.67
2023-05-21T03:49:06.972Z,7.37
2023-05-21T03:51:35.435Z,8.83
2023-05-21T03:54:04.100Z,10.20
2023-05-21T03:56:34.326Z,11.67
2023-05-21T03:59:02.914Z,10.57
2023-05-21T04:01:33.080Z,10.77
2023-05-21T04:04:01.709Z,9.23
2023-05-21T04:06:30.839Z,9.10
2023-05-21T04:08:59.496Z,9.83
2023-05-21T04:11:27.966Z,8.30
2023-05-21T04:13:57.917Z,10.87
2023-05-21T04:16:26.453Z,11.23
2023-05-21T04:18:56.541Z,8.80
2023-05-21T04:21:25.112Z,8.00
2023-05-21T04:23:54.521Z,8.93
2023-05-21T04:26:23.061Z,8.03
2023-05-21T04:28:51.653Z,10.13
2023-05-21T04:31:21.952Z,11.10
2023-05-21T04:33:50.981Z,8.90
2023-05-21T04:36:19.371Z,15.40
2023-05-21T04:38:49.052Z,9.03
2023-05-21T04:41:19.135Z,8.27
2023-05-21T04:43:47.817Z,8.47
2023-05-21T04:46:16.529Z,10.07
2023-05-21T04:48:46.924Z,8.23
2023-05-21T04:51:15.456Z,7.60
2023-05-21T04:53:44.029Z,9.27
2023-05-21T04:56:12.560Z,6.97
2023-05-21T04:58:41.788Z,9.97
2023-05-21T05:01:10.427Z,9.03
2023-05-21T05:03:38.914Z,9.20
2023-05-21T05:06:09.013Z,10.10
2023-05-21T05:08:37.407Z,9.27
2023-05-21T05:11:06.191Z,10.57
2023-05-21T05:13:34.784Z,8.40
2023-05-21T05:16:03.369Z,9.00
2023-05-21T05:18:31.943Z,7.53
2023-05-21T05:21:00.574Z,8.80
2023-05-21T05:23:30.628Z,9.10
2023-05-21T05:25:59.120Z,10.17
2023-05-21T05:28:27.585Z,8.80
2023-05-21T05:30:56.285Z,8.60
2023-05-21T05:33:24.887Z,9.33
2023-05-21T05:35:53.927Z,12.03
2023-05-21T05:38:22.751Z,8.83
2023-05-21T05:40:52.591Z,10.07
2023-05-21T05:43:21.321Z,8.30
2023-05-21T05:45:49.776Z,9.67
2023-05-21T05:48:18.529Z,9.50
2023-05-21T05:50:47.695Z,7.53
2023-05-21T05:53:16.321Z,8.10
2023-05-21T05:55:44.858Z,8.23
2023-05-21T05:58:14.695Z,10.90
2023-05-21T06:00:43.250Z,8.23
2023-05-21T06:03:12.814Z,7.67
2023-05-21T06:05:41.400Z,9.03
2023-05-21T06:08:09.815Z,9.20
2023-05-21T06:10:38.318Z,8.90
2023-05-21T06:13:06.814Z,6.80
2023-05-21T06:15:37.124Z,6.93
2023-05-21T06:18:05.768Z,9.60
2023-05-21T06:20:34.267Z,7.43
2023-05-21T06:23:02.700Z,9.67
2023-05-21T06:25:31.998Z,7.60
2023-05-21T06:28:00.676Z,8.57
2023-05-21T06:30:29.322Z,8.43
2023-05-21T06:32:59.326Z,7.33
2023-05-21T06:35:28.071Z,10.30
2023-05-21T06:37:56.699Z,9.27
2023-05-21T06:40:25.242Z,8.83
2023-05-21T06:42:53.806Z,7.37
2023-05-21T06:45:22.376Z,10.87
2023-05-21T06:47:51.051Z,7.87
2023-05-21T06:50:21.897Z,8.03
2023-05-21T06:52:50.467Z,9.13
2023-05-21T06:55:18.914Z,8.70
2023-05-21T06:57:47.503Z,9.63
2023-05-21T07:00:16.259Z,10.07
2023-05-21T07:02:44.814Z,9.20
2023-05-21T07:05:13.365Z,10.77
2023-05-21T07:07:43.309Z,8.03
2023-05-21T07:10:12.200Z,10.20
2023-05-21T07:12:41.440Z,9.00
2023-05-21T07:15:10.345Z,7.57
2023-05-21T07:17:38.967Z,9.57
2023-05-21T07:20:10.216Z,9.50
2023-05-21T07:22:40.085Z,10.13
2023-05-21T07:25:11.102Z,10.37
2023-05-21T07:27:40.747Z,9.43
2023-05-21T07:30:09.990Z,9.20
2023-05-21T07:32:38.523Z,9.57
2023-05-21T07:35:08.452Z,8.47
2023-05-21T07:37:37.155Z,10.70
2023-05-21T07:40:06.487Z,8.30
2023-05-21T07:42:36.409Z,12.03
2023-05-21T07:45:05.175Z,8.80
2023-05-21T07:47:33.693Z,7.73
2023-05-21T07:50:02.502Z,10.83
2023-05-21T07:52:31.156Z,8.33
2023-05-21T07:54:59.613Z,7.90
2023-05-21T07:57:28.226Z,8.30
2023-05-21T07:59:58.503Z,7.77
2023-05-21T08:02:27.293Z,8.23
2023-05-21T08:04:56.184Z,7.93
2023-05-21T08:07:24.608Z,8.40
2023-05-21T08:09:54.178Z,12.00
2023-05-21T08:12:22.854Z,8.27
2023-05-21T08:14:51.491Z,8.73
2023-05-21T08:17:21.369Z,7.47
2023-05-21T08:19:49.985Z,8.47
2023-05-21T08:22:18.532Z,8.30
2023-05-21T08:24:46.925Z,8.20
2023-05-21T08:27:16.583Z,8.83
2023-05-21T08:29:45.082Z,8.80
2023-05-21T08:32:13.748Z,8.77
2023-05-21T08:34:43.786Z,9.30
2023-05-21T08:37:12.435Z,8.83
2023-05-21T08:39:41.068Z,8.77
2023-05-21T08:42:13.050Z,11.17
2023-05-21T08:44:42.248Z,8.80
2023-05-21T08:47:10.828Z,7.53
2023-05-21T08:49:39.438Z,9.40
2023-05-21T08:52:09.354Z,8.90
2023-05-21T08:54:39.907Z,7.97
2023-05-21T08:57:08.322Z,10.10
2023-05-21T08:59:39.989Z,9.13
2023-05-21T09:02:08.803Z,9.73
2023-05-21T09:04:38.919Z,10.87
2023-05-21T09:07:08.989Z,11.13
2023-05-21T09:09:39.543Z,8.60
2023-05-21T09:12:08.777Z,7.93
2023-05-21T09:14:37.548Z,8.83
2023-05-21T09:17:09.795Z,9.30
2023-05-21T09:19:38.871Z,7.63
2023-05-21T09:22:09.323Z,8.23
2023-05-21T09:24:38.097Z,11.07
2023-05-21T09:27:09.844Z,9.50
2023-05-21T09:29:40.258Z,8.83
2023-05-21T09:32:09.575Z,7.70
2023-05-21T09:34:39.402Z,7.07
2023-05-21T09:37:23.828Z,7.30
2023-05-21T09:39:58.364Z,8.40
2023-05-21T09:42:27.335Z,9.10
2023-05-21T09:44:56.138Z,7.70
2023-05-21T09:47:26.017Z,8.50
2023-05-21T09:49:55.856Z,8.63
2023-05-21T09:52:30.685Z,8.10
2023-05-21T09:55:00.298Z,8.87
2023-05-21T09:57:28.905Z,9.40
2023-05-21T09:59:57.455Z,8.80
2023-05-21T10:02:26.916Z,12.70
2023-05-21T10:04:55.764Z,7.97
2023-05-21T10:07:27.495Z,8.73
2023-05-21T10:09:58.440Z,7.77
2023-05-21T10:12:27.521Z,7.90
2023-05-21T10:15:00.719Z,11.43
2023-05-21T10:17:32.162Z,8.70
2023-05-21T10:20:01.213Z,7.90
2023-05-21T10:22:33.157Z,7.27
2023-05-21T10:25:03.976Z,8.00
2023-05-21T10:27:33.055Z,6.77
2023-05-21T10:30:03.321Z,8.83
2023-05-21T10:32:35.927Z,7.93
2023-05-21T10:35:05.989Z,8.63
2023-05-21T10:37:34.672Z,8.83
2023-05-21T10:40:05.286Z,13.30
2023-05-21T10:42:51.735Z,8.97
2023-05-21T10:45:23.318Z,10.80
2023-05-21T10:48:03.120Z,8.17
2023-05-21T10:50:41.164Z,7.00
2023-05-21T10:53:13.489Z,7.27
2023-05-21T10:55:48.970Z,8.23
2023-05-21T10:58:27.387Z,6.77
2023-05-21T11:00:58.221Z,8.93
2023-05-21T11:03:27.884Z,8.00
2023-05-21T11:05:57.776Z,9.17
2023-05-21T11:08:26.771Z,9.73
2023-05-21T11:10:58.399Z,10.20
2023-05-21T11:13:27.971Z,7.90
2023-05-21T11:16:09.260Z,8.33
2023-05-21T11:18:57.520Z,9.13
2023-05-21T11:21:28.615Z,13.27
2023-05-21T11:24:15.996Z,7.73
2023-05-21T11:27:12.613Z,7.83
2023-05-21T11:29:44.328Z,9.23
2023-05-21T11:32:13.381Z,9.40
2023-05-21T11:34:42.171Z,9.60
2023-05-21T11:37:31.309Z,9.50
2023-05-21T11:40:00.408Z,10.10
2023-05-21T11:42:32.727Z,13.80
2023-05-21T11:45:02.641Z,13.20
2023-05-21T11:47:32.266Z,8.90
2023-05-21T11:50:01.083Z,9.93
2023-05-21T11:52:30.380Z,9.77
2023-05-21T11:54:59.732Z,7.60
2023-05-21T11:57:30.984Z,11.37
2023-05-21T12:00:00.761Z,13.37
2023-05-21T12:02:33.091Z,9.93
2023-05-21T12:05:03.045Z,12.90
2023-05-21T12:07:31.764Z,17.37
2023-05-21T12:10:03.456Z,13.13
2023-05-21T12:12:49.988Z,10.17
2023-05-21T12:15:22.841Z,11.30
2023-05-21T12:17:53.271Z,11.30
2023-05-21T12:20:21.880Z,10.43
2023-05-21T12:22:50.588Z,7.80
2023-05-21T12:25:20.541Z,13.60
2023-05-21T12:27:50.497Z,15.60
2023-05-21T12:30:18.922Z,10.70
2023-05-21T12:32:47.574Z,11.47
2023-05-21T12:35:24.697Z,9.93
2023-05-21T12:37:53.544Z,11.03
2023-05-21T12:40:22.349Z,16.33
2023-05-21T12:42:52.053Z,9.47
2023-05-21T12:45:22.773Z,12.63
2023-05-21T12:47:56.393Z,11.57
2023-05-21T12:50:26.675Z,10.23
2023-05-21T12:53:00.151Z,9.37
2023-05-21T12:55:28.743Z,12.03
2023-05-21T12:58:04.523Z,9.90
2023-05-21T13:00:34.360Z,13.73
2023-05-21T13:03:04.586Z,13.10
2023-05-21T13:05:34.740Z,11.03
2023-05-21T13:08:06.668Z,13.90
2023-05-21T13:10:35.443Z,15.03
2023-05-21T13:13:04.042Z,9.80
2023-05-21T13:15:34.642Z,9.77
2023-05-21T13:18:03.835Z,12.17
2023-05-21T13:20:32.351Z,9.57
2023-05-21T13:23:04.796Z,6.97
2023-05-21T13:25:34.396Z,9.50
2023-05-21T13:28:03.415Z,10.23
2023-05-21T13:30:33.306Z,8.77
2023-05-21T13:33:01.934Z,9.70
2023-05-21T13:35:32.293Z,11.97
2023-05-21T13:38:02.113Z,10.23
2023-05-21T13:40:30.902Z,8.90
2023-05-21T13:42:59.828Z,13.47
2023-05-21T13:45:29.368Z,13.20
2023-05-21T13:47:58.172Z,8.47
2023-05-21T13:50:26.724Z,10.10
2023-05-21T13:52:55.140Z,9.37
2023-05-21T13:55:25.014Z,12.77
2023-05-21T13:57:53.499Z,11.57
2023-05-21T14:00:22.204Z,8.83
2023-05-21T14:02:51.124Z,9.33
2023-05-21T14:05:19.747Z,11.40
2023-05-21T14:07:48.428Z,13.23
2023-05-21T14:10:17.090Z,9.97
2023-05-21T14:12:47.337Z,10.67
2023-05-21T14:15:16.242Z,7.73
2023-05-21T14:17:44.687Z,8.60
2023-05-21T14:20:13.947Z,10.73
2023-05-21T14:22:42.414Z,11.73
2023-05-21T14:25:11.450Z,11.10
2023-05-21T14:27:39.855Z,11.70
2023-05-21T14:30:10.551Z,12.30
2023-05-21T14:32:39.149Z,8.57
2023-05-21T14:35:07.886Z,11.87
2023-05-21T14:37:36.482Z,13.77
2023-05-21T14:40:05.670Z,10.87
2023-05-21T14:42:35.678Z,11.07
2023-05-21T14:45:17.549Z,11.77
2023-05-21T14:47:48.886Z,10.20
2023-05-21T14:50:18.199Z,10.87
2023-05-21T14:52:46.786Z,9.63
2023-05-21T14:55:16.888Z,14.20
2023-05-21T14:57:45.598Z,11.50
2023-05-21T15:00:14.602Z,14.23
2023-05-21T15:02:43.084Z,9.57
2023-05-21T15:05:13.128Z,10.77
2023-05-21T15:07:41.699Z,13.93
2023-05-21T15:10:11.174Z,12.67
2023-05-21T15:12:39.789Z,8.93
2023-05-21T15:15:08.713Z,12.73
2023-05-21T15:17:37.332Z,9.67
2023-05-21T15:20:06.473Z,9.50
2023-05-21T15:22:36.470Z,10.60
2023-05-21T15:25:05.301Z,7.83
2023-05-21T15:27:33.836Z,8.97
2023-05-21T15:30:02.659Z,10.07
2023-05-21T15:32:31.154Z,12.10
2023-05-21T15:34:59.810Z,12.93
2023-05-21T15:37:32.208Z,10.00
2023-05-21T15:40:02.180Z,12.37
2023-05-21T15:42:31.852Z,15.53
2023-05-21T15:45:00.567Z,13.93
2023-05-21T15:47:29.103Z,10.60
2023-05-21T15:49:58.858Z,16.63
2023-05-21T15:52:27.464Z,18.90
2023-05-21T15:54:56.079Z,11.83
2023-05-21T15:57:25.975Z,12.90
2023-05-21T15:59:54.577Z,17.80
2023-05-21T16:02:23.320Z,9.03
2023-05-21T16:04:52.256Z,11.83
2023-05-21T16:07:21.245Z,10.93
2023-05-21T16:09:49.813Z,10.30
2023-05-21T16:12:18.448Z,9.50
2023-05-21T16:14:51.422Z,12.73
2023-05-21T16:17:20.123Z,9.13
2023-05-21T16:19:48.607Z,9.00
2023-05-21T16:22:17.173Z,10.30
2023-05-21T16:24:45.670Z,9.13
2023-05-21T16:27:14.144Z,9.27
2023-05-21T16:29:42.627Z,10.07
2023-05-21T16:32:14.155Z,11.50
2023-05-21T16:34:42.752Z,10.20
2023-05-21T16:37:11.333Z,9.03
2023-05-21T16:39:39.834Z,10.70
2023-05-21T16:42:08.425Z,12.63
2023-05-21T16:44:37.966Z,12.77
2023-05-21T16:47:06.661Z,8.60
2023-05-21T16:49:36.525Z,12.47
2023-05-21T16:52:05.404Z,9.77
2023-05-21T16:54:33.895Z,14.47
2023-05-21T16:57:03.064Z,9.77
2023-05-21T16:59:32.246Z,16.03
2023-05-21T17:02:02.783Z,11.83
2023-05-21T17:04:31.365Z,11.10
2023-05-21T17:07:01.519Z,11.70
2023-05-21T17:09:30.193Z,11.70
2023-05-21T17:11:58.716Z,14.73
2023-05-21T17:14:34.323Z,10.23
2023-05-21T17:17:03.465Z,14.87
2023-05-21T17:19:32.068Z,9.27
2023-05-21T17:22:02.009Z,12.00
2023-05-21T17:24:30.916Z,11.17
2023-05-21T17:26:59.567Z,11.23
2023-05-21T17:29:29.125Z,16.47
2023-05-21T17:31:57.615Z,11.83
2023-05-21T17:34:29.375Z,13.17
2023-05-21T17:36:58.058Z,11.83
2023-05-21T17:39:28.239Z,9.50
2023-05-21T17:41:57.109Z,14.50
2023-05-21T17:44:25.670Z,11.90
2023-05-21T17:46:54.109Z,10.63
2023-05-21T17:49:22.699Z,10.30
2023-05-21T17:51:51.344Z,9.83
2023-05-21T17:54:21.377Z,9.27
2023-05-21T17:56:51.192Z,15.37
2023-05-21T17:59:21.220Z,13.50
2023-05-21T18:01:49.877Z,15.70
2023-05-21T18:04:18.474Z,13.83
2023-05-21T18:06:46.920Z,16.43
2023-05-21T18:09:15.628Z,15.87
2023-05-21T18:11:44.907Z,11.63
2023-05-21T18:14:14.853Z,16.17
2023-05-21T18:16:43.272Z,13.37
2023-05-21T18:19:11.806Z,16.17
2023-05-21T18:21:40.425Z,14.07
2023-05-21T18:24:09.196Z,15.53
2023-05-21T18:26:37.680Z,12.93
2023-05-21T18:29:06.192Z,12.33
2023-05-21T18:31:35.984Z,9.40
2023-05-21T18:34:04.463Z,14.70
2023-05-21T18:36:39.122Z,13.33
2023-05-21T18:39:08.101Z,15.07
2023-05-21T18:41:37.423Z,12.83
2023-05-21T18:44:07.128Z,12.90
2023-05-21T18:46:37.712Z,8.60
2023-05-21T18:49:06.850Z,12.80
2023-05-21T18:51:35.583Z,14.67
2023-05-21T18:54:04.246Z,11.97
2023-05-21T18:56:32.736Z,11.87
2023-05-21T18:59:01.274Z,16.47
2023-05-21T19:01:30.182Z,16.27
2023-05-21T19:04:00.226Z,15.30
2023-05-21T19:06:28.657Z,11.70
2023-05-21T19:08:57.147Z,13.97
2023-05-21T19:11:30.939Z,14.87
2023-05-21T19:13:59.457Z,16.27
2023-05-21T19:16:27.979Z,17.33
2023-05-21T19:18:56.520Z,10.77
2023-05-21T19:21:26.518Z,20.07
2023-05-21T19:23:55.013Z,17.83
2023-05-21T19:26:23.793Z,12.23
2023-05-21T19:28:53.892Z,13.37
2023-05-21T19:31:22.664Z,16.60
2023-05-21T19:33:51.379Z,16.70
2023-05-21T19:36:20.386Z,18.33
2023-05-21T19:38:50.302Z,14.53
2023-05-21T19:41:18.792Z,19.47
2023-05-21T19:43:48.664Z,16.03
2023-05-21T19:46:21.082Z,14.77
2023-05-21T19:48:51.797Z,17.57
2023-05-21T19:51:20.787Z,21.33
2023-05-21T19:53:54.299Z,14.37
2023-05-21T19:56:23.347Z,14.80
2023-05-21T19:58:51.792Z,15.33
2023-05-21T20:01:23.584Z,10.20
2023-05-21T20:03:52.546Z,16.90
2023-05-21T20:06:21.224Z,20.23
2023-05-21T20:08:49.805Z,21.40
2023-05-21T20:11:21.440Z,17.30
2023-05-21T20:13:53.511Z,15.63
2023-05-21T20:16:23.446Z,13.27
2023-05-21T20:18:58.162Z,20.57
2023-05-21T20:21:32.010Z,16.87
2023-05-21T20:24:00.737Z,18.60
2023-05-21T20:26:35.492Z,18.03
2023-05-21T20:29:04.116Z,20.00
2023-05-21T20:31:33.073Z,18.77
2023-05-21T20:34:08.671Z,17.47
2023-05-21T20:36:40.637Z,18.93
2023-05-21T20:39:10.744Z,20.00
2023-05-21T20:41:44.849Z,20.87
2023-05-21T20:44:13.871Z,20.10
2023-05-21T20:46:42.862Z,21.20
2023-05-21T20:49:12.002Z,17.80
2023-05-21T20:51:41.575Z,19.73
2023-05-21T20:54:13.064Z,16.13
2023-05-21T20:56:45.179Z,17.10
2023-05-21T20:59:13.777Z,26.13
2023-05-21T21:01:45.620Z,20.63
2023-05-21T21:04:14.130Z,18.70
2023-05-21T21:06:42.920Z,20.77
2023-05-21T21:09:11.401Z,19.77
2023-05-21T21:11:39.871Z,17.53
2023-05-21T21:14:09.885Z,23.07
2023-05-21T21:16:38.488Z,20.20
2023-05-21T21:19:08.230Z,26.17
2023-05-21T21:21:37.401Z,19.57
2023-05-21T21:24:07.262Z,21.53
2023-05-21T21:26:35.983Z,17.57
2023-05-21T21:29:04.647Z,15.30
2023-05-21T21:31:34.576Z,19.00
2023-05-21T21:34:03.106Z,20.43
2023-05-21T21:36:31.845Z,23.43
2023-05-21T21:39:00.853Z,23.73
2023-05-21T21:41:31.462Z,18.40
2023-05-21T21:43:59.870Z,20.03
2023-05-21T21:46:28.456Z,22.17
2023-05-21T21:48:59.267Z,24.63
2023-05-21T21:51:27.864Z,17.20
2023-05-21T21:53:56.344Z,27.27
2023-05-21T21:56:24.947Z,17.13
2023-05-21T21:58:53.441Z,22.80
2023-05-21T22:01:22.086Z,20.07
2023-05-21T22:03:50.565Z,24.33
2023-05-21T22:06:21.129Z,24.10
2023-05-21T22:08:50.304Z,24.87
2023-05-21T22:11:19.090Z,22.77
2023-05-21T22:13:47.825Z,22.43
2023-05-21T22:16:16.748Z,17.50
2023-05-21T22:18:46.410Z,24.20
2023-05-21T22:21:18.363Z,21.83
2023-05-21T22:23:52.039Z,19.73
2023-05-21T22:26:21.990Z,22.17
2023-05-21T22:28:50.646Z,21.43
2023-05-21T22:31:19.264Z,23.00
2023-05-21T22:33:47.868Z,26.23
2023-05-21T22:36:16.456Z,26.17
2023-05-21T22:38:45.148Z,22.40
2023-05-21T22:41:15.026Z,28.70
2023-05-21T22:43:43.814Z,17.93
2023-05-21T22:46:12.970Z,17.53
2023-05-21T22:48:41.988Z,20.50
2023-05-21T22:51:11.485Z,24.37
2023-05-21T22:53:40.061Z,22.70
2023-05-21T22:56:08.690Z,22.77
2023-05-21T22:58:38.615Z,19.40
2023-05-21T23:01:07.012Z,24.33
2023-05-21T23:03:35.714Z,26.50
2023-05-21T23:06:04.536Z,26.07
2023-05-21T23:08:33.043Z,27.83
2023-05-21T23:11:01.476Z,26.30
2023-05-21T23:13:29.903Z,23.20
2023-05-21T23:15:59.771Z,25.70
2023-05-21T23:18:28.234Z,25.20
2023-05-21T23:20:57.140Z,30.63
2023-05-21T23:23:25.725Z,24.23
2023-05-21T23:25:57.524Z,26.77
2023-05-21T23:28:26.112Z,26.80
2023-05-21T23:30:54.713Z,26.77
2023-05-21T23:33:24.515Z,29.43
2023-05-21T23:35:53.115Z,23.27
2023-05-21T23:38:21.465Z,26.23
2023-05-21T23:40:49.935Z,25.10
2023-05-21T23:43:18.280Z,25.60
2023-05-21T23:45:46.802Z,21.00
2023-05-21T23:48:15.233Z,26.57
2023-05-21T23:50:45.020Z,29.03
2023-05-21T23:53:13.484Z,32.03
2023-05-21T23:55:42.026Z,29.37
2023-05-21T23:58:10.506Z,25.73
